createdAt,value
2023-11-29T00:00:09.731Z,12.93
2023-11-29T00:02:39.192Z,8.35
2023-11-29T00:05:08.216Z,12.35
2023-11-29T00:07:35.994Z,8.90
2023-11-29T00:10:03.256Z,10.10
2023-11-29T00:12:30.452Z,8.13
2023-11-29T00:14:57.485Z,8.25
2023-11-29T00:17:24.526Z,5.25
2023-11-29T00:19:51.536Z,7.28
2023-11-29T00:22:18.731Z,5.57
2023-11-29T00:24:48.952Z,6.43
2023-11-29T00:27:17.002Z,8.63
2023-11-29T00:29:44.241Z,6.32
2023-11-29T00:32:11.588Z,10.60
2023-11-29T00:34:38.598Z,6.53
2023-11-29T00:37:08.505Z,6.90
2023-11-29T00:39:35.431Z,9.07
2023-11-29T00:42:02.419Z,8.40
2023-11-29T00:44:29.400Z,6.53
2023-11-29T00:46:56.440Z,6.80
2023-11-29T00:49:23.457Z,6.97
2023-11-29T00:51:50.486Z,10.43
2023-11-29T00:54:17.456Z,6.35
2023-11-29T00:56:44.681Z,7.30
2023-11-29T00:59:11.695Z,8.63
2023-11-29T01:01:38.722Z,9.38
2023-11-29T01:04:05.738Z,13.00
2023-11-29T01:06:32.902Z,9.40
2023-11-29T01:08:59.789Z,10.40
2023-11-29T01:11:26.800Z,13.57
2023-11-29T01:13:53.725Z,7.93
2023-11-29T01:16:20.623Z,11.27
2023-11-29T01:18:47.914Z,12.43
2023-11-29T01:21:25.118Z,12.10
2023-11-29T01:23:55.752Z,11.70
2023-11-29T01:26:22.686Z,12.80
2023-11-29T01:28:49.678Z,12.35
2023-11-29T01:31:18.214Z,14.07
2023-11-29T01:33:45.211Z,9.27
2023-11-29T01:36:12.971Z,12.23
2023-11-29T01:38:39.997Z,13.02
2023-11-29T01:41:06.944Z,10.68
2023-11-29T01:43:33.864Z,11.05
2023-11-29T01:46:01.017Z,7.97
2023-11-29T01:48:28.979Z,12.07
2023-11-29T01:50:56.457Z,12.05
2023-11-29T01:53:25.031Z,14.52
2023-11-29T01:55:54.047Z,14.20
2023-11-29T01:58:24.836Z,12.18
2023-11-29T02:00:52.531Z,12.02
2023-11-29T02:03:21.345Z,10.35
2023-11-29T02:05:48.943Z,8.95
2023-11-29T02:08:16.011Z,10.77
2023-11-29T02:10:43.114Z,13.82
2023-11-29T02:13:10.043Z,11.52
2023-11-29T02:15:38.097Z,11.65
2023-11-29T02:18:05.342Z,9.15
2023-11-29T02:20:32.922Z,6.32
2023-11-29T02:23:11.564Z,13.75
2023-11-29T02:25:38.523Z,11.40
2023-11-29T02:28:05.474Z,13.68
2023-11-29T02:30:32.582Z,12.82
2023-11-29T02:32:59.643Z,11.15
2023-11-29T02:35:26.641Z,10.68
2023-11-29T02:37:53.612Z,13.73
2023-11-29T02:40:20.548Z,11.75
2023-11-29T02:42:47.531Z,11.45
2023-11-29T02:45:14.519Z,6.63
2023-11-29T02:47:41.619Z,13.35
2023-11-29T02:50:09.137Z,5.95
2023-11-29T02:52:36.134Z,9.35
2023-11-29T02:55:03.049Z,8.25
2023-11-29T02:57:30.083Z,13.40
2023-11-29T02:59:57.035Z,10.75
2023-11-29T03:02:24.115Z,7.95
2023-11-29T03:04:51.164Z,9.90
2023-11-29T03:07:18.045Z,10.10
2023-11-29T03:09:44.957Z,10.95
2023-11-29T03:12:11.898Z,11.38
2023-11-29T03:14:39.103Z,15.15
2023-11-29T03:17:06.053Z,13.27
2023-11-29T03:19:32.974Z,12.38
2023-11-29T03:21:59.964Z,18.60
2023-11-29T03:24:26.869Z,8.57
2023-11-29T03:26:54.102Z,8.60
2023-11-29T03:29:21.208Z,8.05
2023-11-29T03:31:49.064Z,10.98
2023-11-29T03:34:16.102Z,11.07
2023-11-29T03:36:44.234Z,11.13
2023-11-29T03:39:11.649Z,10.65
2023-11-29T03:41:38.575Z,11.73
2023-11-29T03:44:05.467Z,9.52
2023-11-29T03:46:32.360Z,9.82
2023-11-29T03:48:59.314Z,10.77
2023-11-29T03:51:29.697Z,10.38
2023-11-29T03:54:01.662Z,9.65
2023-11-29T03:56:28.700Z,8.27
2023-11-29T03:58:55.650Z,9.88
2023-11-29T04:01:22.634Z,10.80
2023-11-29T04:03:49.724Z,8.95
2023-11-29T04:06:27.375Z,9.98
2023-11-29T04:08:57.522Z,9.23
2023-11-29T04:11:24.692Z,10.50
2023-11-29T04:13:51.718Z,12.60
2023-11-29T04:16:27.272Z,15.25
2023-11-29T04:18:55.297Z,11.55
2023-11-29T04:21:32.685Z,5.47
2023-11-29T04:24:00.176Z,13.10
2023-11-29T04:26:36.410Z,12.10
2023-11-29T04:29:05.387Z,8.50
2023-11-29T04:31:33.620Z,15.20
2023-11-29T04:34:07.305Z,15.85
2023-11-29T04:36:41.990Z,12.73
2023-11-29T04:39:11.138Z,11.35
2023-11-29T04:41:38.174Z,12.75
2023-11-29T04:44:05.347Z,9.15
2023-11-29T04:46:32.251Z,10.07
2023-11-29T04:48:59.373Z,10.40
2023-11-29T04:51:27.326Z,4.25
2023-11-29T04:53:54.623Z,14.85
2023-11-29T04:56:21.557Z,19.08
2023-11-29T04:58:48.546Z,9.32
2023-11-29T05:01:16.260Z,12.02
2023-11-29T05:03:43.191Z,12.68
2023-11-29T05:06:13.773Z,12.07
2023-11-29T05:08:40.765Z,5.95
2023-11-29T05:11:08.532Z,13.02
2023-11-29T05:13:35.664Z,10.35
2023-11-29T05:16:02.754Z,10.30
2023-11-29T05:18:29.988Z,17.10
2023-11-29T05:20:58.243Z,13.98
2023-11-29T05:23:28.098Z,11.73
2023-11-29T05:25:55.034Z,17.90
2023-11-29T05:28:26.653Z,11.55
2023-11-29T05:33:23.825Z,14.82
2023-11-29T05:35:51.142Z,14.05
2023-11-29T05:38:18.128Z,15.75
2023-11-29T05:40:45.606Z,20.05
2023-11-29T05:43:12.743Z,15.82
2023-11-29T05:45:39.733Z,18.98
2023-11-29T05:48:06.995Z,17.40
2023-11-29T05:50:34.219Z,16.40
2023-11-29T05:53:01.093Z,11.05
2023-11-29T05:55:28.916Z,17.85
2023-11-29T05:57:55.851Z,11.77
2023-11-29T06:00:28.437Z,14.25
2023-11-29T06:03:03.152Z,17.90
2023-11-29T06:05:31.561Z,17.05
2023-11-29T06:07:58.918Z,17.05
2023-11-29T06:10:26.524Z,12.98
2023-11-29T06:12:53.856Z,11.10
2023-11-29T06:15:21.058Z,8.23
2023-11-29T06:17:48.559Z,19.40
2023-11-29T06:20:20.025Z,11.10
2023-11-29T06:25:14.523Z,8.20
2023-11-29T06:27:41.551Z,10.38
2023-11-29T06:30:09.314Z,8.13
2023-11-29T06:32:38.107Z,9.45
2023-11-29T06:35:05.729Z,12.98
2023-11-29T06:37:35.319Z,9.00
2023-11-29T06:40:04.581Z,11.35
2023-11-29T06:42:31.672Z,10.35
2023-11-29T06:44:58.650Z,13.50
2023-11-29T06:47:25.649Z,13.75
2023-11-29T06:49:53.310Z,16.77
2023-11-29T06:52:21.148Z,15.73
2023-11-29T06:54:48.141Z,15.00
2023-11-29T06:57:15.101Z,12.45
2023-11-29T06:59:42.071Z,12.55
2023-11-29T07:02:09.498Z,5.68
2023-11-29T07:04:39.418Z,12.23
2023-11-29T07:07:07.309Z,11.45
2023-11-29T07:09:34.234Z,11.27
2023-11-29T07:12:01.318Z,9.75
2023-11-29T07:14:28.652Z,11.98
2023-11-29T07:16:55.603Z,16.83
2023-11-29T07:19:22.716Z,5.75
2023-11-29T07:21:49.662Z,12.60
2023-11-29T07:24:16.639Z,14.15
2023-11-29T07:26:43.571Z,23.95
2023-11-29T07:29:10.476Z,19.08
2023-11-29T07:31:37.448Z,18.95
2023-11-29T07:34:04.684Z,10.15
2023-11-29T07:36:33.034Z,11.95
2023-11-29T07:39:00.630Z,17.88
2023-11-29T07:41:28.292Z,15.02
2023-11-29T07:43:55.664Z,15.73
2023-11-29T07:46:23.117Z,19.45
2023-11-29T07:48:50.238Z,6.43
2023-11-29T07:51:17.134Z,17.20
2023-11-29T07:53:46.188Z,10.65
2023-11-29T07:56:13.673Z,12.82
2023-11-29T07:58:40.946Z,11.70
2023-11-29T08:01:08.324Z,23.50
2023-11-29T08:03:35.962Z,9.48
2023-11-29T08:06:03.307Z,20.92
2023-11-29T08:08:30.417Z,22.15
2023-11-29T08:10:58.503Z,22.75
2023-11-29T08:13:25.419Z,27.73
2023-11-29T08:15:52.359Z,23.17
2023-11-29T08:18:19.635Z,24.17
2023-11-29T08:20:46.766Z,23.13
2023-11-29T08:23:14.046Z,16.65
2023-11-29T08:25:40.932Z,25.85
2023-11-29T08:28:08.024Z,21.23
2023-11-29T08:30:37.200Z,18.17
2023-11-29T08:33:04.510Z,21.42
2023-11-29T08:35:31.536Z,25.40
2023-11-29T08:37:58.470Z,23.63
2023-11-29T08:40:25.369Z,11.98
2023-11-29T08:42:52.295Z,23.88
2023-11-29T08:45:20.192Z,25.98
2023-11-29T08:47:47.730Z,15.45
2023-11-29T08:50:14.730Z,19.23
2023-11-29T08:52:43.826Z,24.02
2023-11-29T08:55:11.052Z,16.40
2023-11-29T08:57:37.998Z,21.92
2023-11-29T09:00:05.868Z,27.25
2023-11-29T09:02:33.007Z,13.23
2023-11-29T09:05:00.136Z,17.02
2023-11-29T09:07:27.227Z,13.38
2023-11-29T09:09:56.298Z,19.75
2023-11-29T09:12:27.232Z,15.63
2023-11-29T09:14:57.423Z,25.83
2023-11-29T09:17:25.344Z,27.15
2023-11-29T09:19:55.073Z,20.05
2023-11-29T09:22:25.085Z,23.00
2023-11-29T09:24:51.968Z,24.40
2023-11-29T09:27:19.456Z,11.65
2023-11-29T09:29:47.099Z,26.60
2023-11-29T09:32:14.036Z,22.50
2023-11-29T09:34:40.931Z,25.42
2023-11-29T09:37:07.896Z,22.67
2023-11-29T09:39:34.890Z,24.98
2023-11-29T09:42:05.872Z,13.23
2023-11-29T09:44:37.268Z,4.68
2023-11-29T09:47:04.812Z,24.67
2023-11-29T09:49:32.897Z,16.83
2023-11-29T09:52:00.099Z,24.23
2023-11-29T09:54:27.071Z,13.35
2023-11-29T09:56:54.069Z,7.80
2023-11-29T09:59:23.209Z,13.57
2023-11-29T10:01:51.343Z,22.25
2023-11-29T10:04:19.307Z,22.08
2023-11-29T10:06:46.310Z,8.90
2023-11-29T10:09:14.327Z,12.75
2023-11-29T10:11:42.531Z,4.53
2023-11-29T10:14:10.087Z,20.58
2023-11-29T10:16:37.158Z,22.35
2023-11-29T10:19:07.113Z,24.75
2023-11-29T10:21:34.442Z,25.30
2023-11-29T10:24:01.428Z,16.73
2023-11-29T10:26:28.938Z,14.32
2023-11-29T10:28:56.110Z,22.02
2023-11-29T10:31:23.872Z,13.82
2023-11-29T10:33:52.411Z,22.35
2023-11-29T10:36:20.177Z,14.90
2023-11-29T10:38:52.448Z,22.30
2023-11-29T10:41:21.492Z,22.67
2023-11-29T10:43:51.084Z,18.80
2023-11-29T10:46:26.288Z,17.80
2023-11-29T10:49:00.031Z,15.43
2023-11-29T10:51:27.398Z,11.93
2023-11-29T10:53:56.118Z,18.95
2023-11-29T10:56:23.454Z,6.28
2023-11-29T10:59:07.864Z,17.73
2023-11-29T11:01:38.631Z,16.27
2023-11-29T11:04:10.714Z,13.35
2023-11-29T11:06:41.657Z,12.52
2023-11-29T11:09:32.682Z,22.23
2023-11-29T11:12:00.701Z,17.98
2023-11-29T11:14:33.645Z,19.23
2023-11-29T11:17:04.244Z,7.32
2023-11-29T11:19:42.253Z,15.68
2023-11-29T11:25:00.718Z,6.90
2023-11-29T11:27:36.952Z,9.27
2023-11-29T11:30:16.229Z,6.45
2023-11-29T11:32:45.878Z,16.15
2023-11-29T11:35:22.591Z,16.20
2023-11-29T11:37:52.066Z,7.22
2023-11-29T11:40:19.512Z,9.90
2023-11-29T11:42:49.364Z,14.90
2023-11-29T11:45:17.872Z,19.95
2023-11-29T11:47:46.064Z,9.38
2023-11-29T11:50:14.139Z,12.10
2023-11-29T11:52:41.784Z,9.90
2023-11-29T11:55:11.339Z,12.95
2023-11-29T11:57:41.952Z,4.97
2023-11-29T12:00:11.211Z,9.25
2023-11-29T12:02:39.423Z,5.18
2023-11-29T12:05:10.006Z,10.20
2023-11-29T12:07:41.928Z,8.10
2023-11-29T12:10:11.006Z,15.93
2023-11-29T12:12:38.991Z,10.20
2023-11-29T12:15:07.125Z,3.67
2023-11-29T12:17:38.235Z,9.18
2023-11-29T12:20:06.790Z,15.90
2023-11-29T12:22:34.496Z,11.60
2023-11-29T12:25:01.795Z,13.45
2023-11-29T12:27:29.035Z,3.30
2023-11-29T12:30:00.692Z,12.73
2023-11-29T12:32:31.734Z,5.72
2023-11-29T12:34:59.114Z,14.25
2023-11-29T12:37:28.262Z,19.10
2023-11-29T12:39:58.609Z,12.27
2023-11-29T12:42:25.938Z,10.95
2023-11-29T12:44:53.266Z,9.63
2023-11-29T12:47:23.647Z,14.65
2023-11-29T12:49:53.337Z,16.05
2023-11-29T12:52:20.306Z,13.98
2023-11-29T12:54:47.356Z,12.15
2023-11-29T12:57:14.393Z,16.05
2023-11-29T12:59:41.484Z,5.43
2023-11-29T13:02:08.585Z,13.50
2023-11-29T13:04:35.698Z,10.00
2023-11-29T13:07:03.984Z,22.27
2023-11-29T13:09:32.441Z,9.45
2023-11-29T13:12:01.086Z,22.35
2023-11-29T13:14:28.494Z,7.28
2023-11-29T13:16:55.907Z,18.42
2023-11-29T13:19:23.089Z,15.73
2023-11-29T13:21:50.044Z,10.18
2023-11-29T13:24:17.099Z,17.55
2023-11-29T13:26:44.361Z,15.68
2023-11-29T13:29:11.331Z,23.45
2023-11-29T13:31:38.327Z,13.18
2023-11-29T13:34:05.421Z,12.98
2023-11-29T13:36:36.670Z,2.70
2023-11-29T13:39:07.319Z,11.60
2023-11-29T13:41:34.385Z,15.02
2023-11-29T13:44:01.412Z,11.07
2023-11-29T13:46:29.082Z,15.00
2023-11-29T13:48:56.822Z,3.20
2023-11-29T13:51:23.972Z,3.33
2023-11-29T13:53:51.236Z,5.93
2023-11-29T13:56:18.156Z,5.70
2023-11-29T13:58:46.962Z,11.75
2023-11-29T14:01:14.600Z,8.90
2023-11-29T14:03:43.131Z,6.32
2023-11-29T14:06:13.028Z,11.77
2023-11-29T14:08:41.578Z,9.70
2023-11-29T14:11:08.656Z,4.93
2023-11-29T14:13:35.677Z,8.95
2023-11-29T14:16:03.115Z,9.30
2023-11-29T14:18:30.101Z,9.30
2023-11-29T14:20:57.095Z,9.90
2023-11-29T14:23:24.208Z,1.73
2023-11-29T14:25:51.354Z,11.43
2023-11-29T14:28:18.571Z,11.10
2023-11-29T14:30:45.619Z,7.03
2023-11-29T14:33:13.019Z,6.95
2023-11-29T14:35:40.037Z,3.22
2023-11-29T14:38:07.037Z,5.50
2023-11-29T14:40:33.940Z,6.53
2023-11-29T14:43:01.346Z,6.63
2023-11-29T14:45:28.920Z,3.13
2023-11-29T14:47:55.970Z,4.28
2023-11-29T14:50:23.055Z,6.50
2023-11-29T14:52:50.012Z,15.55
2023-11-29T14:55:17.056Z,13.52
2023-11-29T14:57:43.967Z,14.02
2023-11-29T15:00:11.626Z,17.63
2023-11-29T15:02:38.785Z,13.15
2023-11-29T15:05:06.148Z,21.50
2023-11-29T15:07:33.114Z,22.33
2023-11-29T15:10:00.058Z,21.40
2023-11-29T15:12:27.097Z,16.83
2023-11-29T15:14:54.340Z,21.38
2023-11-29T15:17:23.196Z,20.27
2023-11-29T15:19:50.232Z,8.50
2023-11-29T15:22:17.381Z,5.63
2023-11-29T15:24:44.400Z,13.35
2023-11-29T15:27:11.389Z,16.95
2023-11-29T15:29:38.467Z,19.13
2023-11-29T15:32:05.706Z,17.38
2023-11-29T15:34:32.810Z,15.57
2023-11-29T15:36:59.912Z,20.45
2023-11-29T15:39:26.813Z,18.35
2023-11-29T15:41:55.861Z,14.90
2023-11-29T15:44:24.404Z,15.10
2023-11-29T15:46:51.376Z,14.95
2023-11-29T15:49:18.437Z,22.85
2023-11-29T15:51:45.757Z,22.20
2023-11-29T15:54:12.845Z,16.38
2023-11-29T15:56:40.089Z,20.70
2023-11-29T15:59:06.993Z,16.80
2023-11-29T16:01:34.091Z,24.73
2023-11-29T16:04:01.373Z,23.90
2023-11-29T16:06:29.057Z,21.50
2023-11-29T16:08:56.363Z,22.80
2023-11-29T16:11:24.076Z,18.85
2023-11-29T16:13:51.129Z,18.73
2023-11-29T16:16:18.181Z,9.77
2023-11-29T16:18:45.210Z,14.20
2023-11-29T16:21:12.279Z,16.33
2023-11-29T16:23:39.311Z,18.17
2023-11-29T16:26:06.715Z,19.20
2023-11-29T16:28:34.468Z,15.85
2023-11-29T16:31:02.108Z,9.52
2023-11-29T16:33:29.468Z,12.13
2023-11-29T16:35:56.587Z,15.95
2023-11-29T16:38:25.027Z,16.77
2023-11-29T16:40:53.067Z,17.23
2023-11-29T16:43:20.044Z,9.73
2023-11-29T16:45:47.276Z,14.00
2023-11-29T16:50:56.183Z,15.95
2023-11-29T16:53:27.598Z,13.20
2023-11-29T16:55:55.724Z,12.55
2023-11-29T16:58:22.851Z,18.80
2023-11-29T17:00:49.913Z,17.63
2023-11-29T17:03:18.135Z,14.50
2023-11-29T17:05:45.654Z,17.27
2023-11-29T17:08:13.293Z,10.65
2023-11-29T17:10:40.453Z,3.40
2023-11-29T17:13:07.828Z,11.70
2023-11-29T17:15:35.908Z,14.77
2023-11-29T17:18:02.994Z,11.30
2023-11-29T17:20:30.134Z,16.75
2023-11-29T17:22:57.190Z,14.10
2023-11-29T17:25:24.092Z,13.32
2023-11-29T17:27:51.569Z,16.25
2023-11-29T17:30:20.725Z,14.05
2023-11-29T17:32:47.796Z,7.50
2023-11-29T17:35:15.028Z,16.77
2023-11-29T17:37:41.911Z,16.73
2023-11-29T17:40:09.180Z,16.25
2023-11-29T17:42:36.119Z,17.25
2023-11-29T17:45:03.051Z,7.43
2023-11-29T17:47:31.018Z,18.83
2023-11-29T17:49:58.158Z,15.52
2023-11-29T17:52:25.298Z,22.08
2023-11-29T17:54:52.612Z,18.92
2023-11-29T17:57:19.610Z,15.85
2023-11-29T17:59:46.638Z,12.57
2023-11-29T18:02:13.644Z,19.00
2023-11-29T18:04:42.308Z,15.20
2023-11-29T18:07:10.254Z,5.78
2023-11-29T18:09:37.113Z,10.15
2023-11-29T18:12:04.376Z,9.57
2023-11-29T18:14:31.292Z,11.25
2023-11-29T18:16:58.206Z,10.20
2023-11-29T18:19:25.653Z,14.38
2023-11-29T18:21:52.662Z,13.13
2023-11-29T18:24:19.723Z,8.45
2023-11-29T18:26:46.776Z,4.72
2023-11-29T18:29:14.011Z,7.13
2023-11-29T18:31:41.107Z,6.93
2023-11-29T18:34:08.432Z,7.20
2023-11-29T18:36:35.367Z,8.20
2023-11-29T18:39:02.325Z,9.50
2023-11-29T18:41:29.713Z,5.97
2023-11-29T18:43:56.647Z,7.35
2023-11-29T18:46:23.516Z,13.40
2023-11-29T18:48:50.520Z,13.32
2023-11-29T18:51:20.039Z,8.48
2023-11-29T18:53:47.264Z,9.05
2023-11-29T18:56:14.166Z,12.15
2023-11-29T18:58:42.204Z,6.70
2023-11-29T19:01:09.769Z,11.65
2023-11-29T19:03:36.939Z,7.15
2023-11-29T19:06:04.020Z,7.22
2023-11-29T19:08:32.524Z,8.27
2023-11-29T19:10:59.422Z,6.72
2023-11-29T19:13:26.252Z,3.85
2023-11-29T19:15:53.181Z,5.18
2023-11-29T19:18:20.144Z,7.22
2023-11-29T19:20:47.231Z,6.72
2023-11-29T19:23:22.537Z,2.10
2023-11-29T19:25:57.315Z,9.00
2023-11-29T19:28:24.210Z,3.13
2023-11-29T19:30:51.195Z,7.03
2023-11-29T19:33:18.229Z,8.88
2023-11-29T19:35:45.187Z,9.20
2023-11-29T19:38:12.099Z,9.13
2023-11-29T19:40:38.974Z,7.82
2023-11-29T19:43:05.882Z,7.05
2023-11-29T19:45:32.760Z,3.17
2023-11-29T19:47:59.886Z,7.30
2023-11-29T19:50:26.701Z,8.25
2023-11-29T19:52:57.779Z,6.82
2023-11-29T19:55:25.857Z,3.15
2023-11-29T19:57:52.767Z,7.47
2023-11-29T20:00:21.780Z,6.57
2023-11-29T20:02:49.550Z,4.57
2023-11-29T20:05:16.706Z,5.07
2023-11-29T20:07:45.859Z,5.88
2023-11-29T20:10:13.322Z,4.57
2023-11-29T20:12:40.221Z,4.28
2023-11-29T20:15:07.670Z,3.03
2023-11-29T20:17:34.597Z,4.82
2023-11-29T20:20:06.827Z,5.57
2023-11-29T20:25:07.662Z,5.97
2023-11-29T20:27:42.753Z,3.15
2023-11-29T20:30:10.262Z,4.88
2023-11-29T20:32:37.250Z,3.08
2023-11-29T20:35:24.618Z,5.80
2023-11-29T20:37:52.506Z,4.55
2023-11-29T20:40:20.189Z,4.10
2023-11-29T20:42:47.124Z,3.03
2023-11-29T20:45:14.088Z,5.63
2023-11-29T20:47:41.238Z,6.18
2023-11-29T20:50:08.384Z,8.10
2023-11-29T20:52:35.301Z,4.50
2023-11-29T20:55:02.140Z,4.10
2023-11-29T20:57:29.052Z,4.82
2023-11-29T20:59:55.973Z,6.18
2023-11-29T21:02:23.153Z,8.02
2023-11-29T21:04:50.126Z,7.35
2023-11-29T21:07:17.131Z,5.68
2023-11-29T21:09:44.045Z,6.03
2023-11-29T21:12:11.047Z,3.63
2023-11-29T21:14:38.003Z,4.45
2023-11-29T21:17:05.181Z,3.35
2023-11-29T21:19:32.229Z,1.85
2023-11-29T21:21:59.199Z,2.45
2023-11-29T21:24:26.225Z,2.08
2023-11-29T21:26:53.211Z,3.22
2023-11-29T21:29:20.220Z,0.98
2023-11-29T21:31:47.158Z,3.08
2023-11-29T21:34:14.018Z,1.05
2023-11-29T21:36:40.967Z,1.92
2023-11-29T21:39:08.791Z,3.08
2023-11-29T21:41:35.785Z,3.72
2023-11-29T21:44:02.729Z,3.20
2023-11-29T21:46:29.619Z,1.48
2023-11-29T21:48:56.598Z,1.25
2023-11-29T21:51:28.127Z,2.22
2023-11-29T21:53:55.286Z,1.00
2023-11-29T21:56:22.200Z,2.05
2023-11-29T21:58:49.096Z,2.38
2023-11-29T22:01:16.474Z,2.85
2023-11-29T22:03:43.611Z,2.78
2023-11-29T22:06:12.976Z,1.45
2023-11-29T22:08:41.586Z,1.95
2023-11-29T22:11:08.724Z,3.50
2023-11-29T22:13:38.637Z,2.78
2023-11-29T22:16:05.865Z,2.53
2023-11-29T22:18:34.157Z,2.33
2023-11-29T22:21:01.245Z,2.75
2023-11-29T22:23:28.634Z,2.80
2023-11-29T22:25:56.389Z,3.38
2023-11-29T22:28:23.977Z,3.30
2023-11-29T22:30:51.522Z,0.82
2023-11-29T22:33:18.567Z,3.10
2023-11-29T22:35:46.123Z,1.55
2023-11-29T22:38:13.047Z,1.05
2023-11-29T22:40:39.927Z,0.98
2023-11-29T22:43:06.770Z,1.65
2023-11-29T22:45:33.746Z,0.70
2023-11-29T22:48:00.981Z,1.27
2023-11-29T22:50:27.988Z,2.70
2023-11-29T22:52:54.913Z,1.15
2023-11-29T22:55:21.790Z,2.15
2023-11-29T22:57:48.636Z,1.77
2023-11-29T23:00:16.431Z,2.05
2023-11-29T23:02:43.430Z,1.33
2023-11-29T23:05:10.524Z,1.55
2023-11-29T23:07:37.385Z,2.95
2023-11-29T23:10:04.432Z,1.77
2023-11-29T23:12:31.594Z,3.88
2023-11-29T23:14:58.554Z,1.50
2023-11-29T23:17:26.473Z,1.83
2023-11-29T23:19:53.435Z,0.80
2023-11-29T23:22:20.403Z,1.55
2023-11-29T23:24:47.313Z,1.88
2023-11-29T23:27:14.286Z,1.33
2023-11-29T23:29:41.223Z,1.85
2023-11-29T23:32:08.134Z,2.40
2023-11-29T23:34:35.485Z,2.30
2023-11-29T23:37:02.442Z,1.60
2023-11-29T23:39:29.356Z,4.25
2023-11-29T23:41:56.569Z,1.17
2023-11-29T23:44:23.456Z,4.28
2023-11-29T23:46:50.369Z,3.80
2023-11-29T23:49:17.349Z,1.85
2023-11-29T23:51:44.230Z,0.90
2023-11-29T23:54:11.159Z,0.77
2023-11-29T23:56:38.670Z,3.53
2023-11-29T23:59:05.533Z,3.38
